Sunday, April 22, 2018, 9:33 PM EDT
Back to Local

KMPO, Mt Pocono Pocono Mountains

Location: Pocono Summit, PA, United States Lat: 41.133
Local Time: 9:33 PM EDT ( 1:33 GMT) Lon: -75.383
Time Zone: US/Eastern Elev: 1915 ft

Show me the last for .
Show Coded

Time T Td Feel RH Dir Speed Gust Alt SLP Vis Weather Sky Remarks
2018-04-22 20:53 49 15 47 25 330° 5 - 30.35 30.38 10 CLR None
2018-04-22 19:53 53 14 - 20 320° 6 - 30.33 30.36 10 CLR 6-hr Min Temp (8pm): 53.1°F
6-hr Max Temp (8pm): 59.0°F
2018-04-22 18:53 56 14 - 18 310° 7 - 30.32 30.35 10 CLR None
2018-04-22 17:53 58 14 - 17 280° 9 21 30.32 30.35 10 CLR None
2018-04-22 16:53 57 12 - 16 Variable 6 - 30.32 30.36 10 CLR None
2018-04-22 15:53 57 16 - 19 10° 9 - 30.33 30.35 10 CLR None
2018-04-22 14:53 57 14 - 18 310° 10 - 30.34 30.37 10 CLR None
2018-04-22 13:53 55 10 - 16 320° 8 - 30.36 30.39 10 CLR 6-hr Min Temp (2pm): 39.9°F
6-hr Max Temp (2pm): 55.9°F
2018-04-22 12:53 54 11 - 17 310° 12 17 30.37 30.40 10 CLR None
2018-04-22 11:53 52 14 - 21 300° 7 20 30.39 30.41 10 CLR None
2018-04-22 10:53 51 13 - 21 300° 13 20 30.39 30.42 10 CLR None
2018-04-22 09:53 50 14 47 23 330° 8 - 30.39 30.42 10 CLR None
2018-04-22 08:53 46 19 41 33 320° 9 - 30.39 30.42 10 CLR None
2018-04-22 07:53 40 20 35 44 320° 7 - 30.38 30.42 10 CLR 6-hr Min Temp (8am): 25.0°F
6-hr Max Temp (8am): 39.9°F
2018-04-22 06:53 31 17 26 55 300° 5 - 30.37 30.42 10 CLR None
2018-04-22 05:53 26 19 22 74 250° 3 - 30.36 30.41 10 CLR None
2018-04-22 04:53 26 17 19 68 310° 6 - 30.34 30.39 10 CLR None
2018-04-22 03:53 32 15 26 49 330° 6 - 30.35 30.39 10 CLR None
2018-04-22 02:53 33 15 26 47 330° 8 - 30.36 30.40 10 CLR None
2018-04-22 01:53 32 20 26 60 260° 6 - 30.36 30.40 10 CLR 6-hr Min Temp (2am): 32.0°F
6-hr Max Temp (2am): 46.0°F
2018-04-22 00:53 37 17 33 43 280° 5 - 30.35 30.38 10 CLR 24-hr Min Temp (1am): 28.0°F
24-hr Max Temp (1am): 53.1°F
2018-04-21 23:53 40 17 34 39 330° 8 - 30.34 30.37 10 CLR None
2018-04-21 22:53 40 19 34 42 330° 8 - 30.34 30.37 10 CLR None
2018-04-21 21:53 41 20 36 42 320° 7 - 30.34 30.38 10 CLR None

Support USWX by starting your Amazon purchase here.